Time;durP1;ratioP1;P1;durP2;ratioP2;P2;SDS_P1;SDS_P2;PMS_P1;PMS_P2;Temp;Humidity;BMP_temperature;BMP_pressure;BME280_temperature;BME280_humidity;BME280_pressure;Samples;Min_cycle;Max_cycle;Signal;HPM_P1;HPM_P2
2021/10/19 21:22:52;;;;;;;8.18;5.90;;;;;;;;;;5022477;25;57131;-78
2021/10/19 21:25:19;;;;;;;8.05;6.20;;;;;;;;;;4392618;31;35306;-76
2021/10/19 21:27:46;;;;;;;6.57;5.50;;;;;;;;;;4160983;33;38937;-75
2021/10/19 21:30:13;;;;;;;8.53;4.93;;;;;;;;;;4030669;34;20563;-77
2021/10/19 21:32:40;;;;;;;5.67;4.63;;;;;;;;;;3993238;35;20904;-76
2021/10/19 21:35:06;;;;;;;6.90;5.00;;;;;;;;;;3992817;35;20508;-78
2021/10/19 21:37:32;;;;;;;6.32;5.68;;;;;;;;;;3992823;35;20876;-75
2021/10/19 21:39:58;;;;;;;5.83;4.97;;;;;;;;;;4002071;35;20226;-76
2021/10/19 21:42:24;;;;;;;7.43;5.00;;;;;;;;;;3992425;36;20971;-75
2021/10/19 21:44:50;;;;;;;6.90;5.50;;;;;;;;;;3992796;36;20477;-76
2021/10/19 21:47:16;;;;;;;6.32;4.78;;;;;;;;;;3992731;35;20478;-75
2021/10/19 21:49:42;;;;;;;7.00;5.55;;;;;;;;;;3992705;35;20302;-78
2021/10/19 21:52:08;;;;;;;7.30;5.47;;;;;;;;;;3992071;36;20324;-75
2021/10/19 21:54:34;;;;;;;7.13;5.72;;;;;;;;;;3992645;35;20485;-76
2021/10/19 21:57:00;;;;;;;5.93;5.33;;;;;;;;;;3992684;35;20684;-75
2021/10/19 21:59:27;;;;;;;9.17;5.70;;;;;;;;;;3992767;35;20468;-77
2021/10/19 22:01:53;;;;;;;5.20;4.70;;;;;;;;;;3992267;35;20552;-77
2021/10/19 22:04:19;;;;;;;5.07;4.60;;;;;;;;;;3992610;36;20213;-75
2021/10/19 22:06:45;;;;;;;4.47;4.00;;;;;;;;;;3990331;35;20262;-76
2021/10/19 22:09:11;;;;;;;4.45;4.05;;;;;;;;;;3984255;36;20251;-77
2021/10/19 22:11:37;;;;;;;5.80;4.60;;;;;;;;;;3993144;35;20251;-76
2021/10/19 22:14:05;;;;;;;5.80;4.13;;;;;;;;;;3984282;36;20315;-78
2021/10/19 22:16:31;;;;;;;4.93;4.38;;;;;;;;;;3984145;36;21035;-77
2021/10/19 22:18:57;;;;;;;4.80;3.90;;;;;;;;;;3984258;36;20262;-80
2021/10/19 22:21:23;;;;;;;4.47;3.47;;;;;;;;;;3993149;35;20580;-79
2021/10/19 22:26:17;;;;;;;2.73;2.50;;;;;;;;;;4090257;34;40283;-79
2021/10/19 22:28:51;;;;;;;3.70;2.53;;;;;;;;;;4210502;33;20498;-80
2021/10/19 22:31:18;;;;;;;3.87;2.60;;;;;;;;;;4283293;33;20526;-77
2021/10/19 22:33:45;;;;;;;2.93;2.70;;;;;;;;;;4320643;33;20545;-79
2021/10/19 22:36:11;;;;;;;3.73;2.23;;;;;;;;;;4319398;33;20506;-79
2021/10/19 22:38:37;;;;;;;2.80;2.50;;;;;;;;;;4320626;33;20451;-80
2021/10/19 22:41:03;;;;;;;4.50;2.50;;;;;;;;;;4320126;33;20447;-79
2021/10/19 22:43:29;;;;;;;3.60;2.30;;;;;;;;;;4320428;33;20924;-77
2021/10/19 22:46:01;;;;;;;4.27;2.50;;;;;;;;;;4319373;33;20889;-76
2021/10/19 22:48:27;;;;;;;2.67;2.30;;;;;;;;;;4320338;33;20466;-77
2021/10/19 22:50:54;;;;;;;1.83;1.57;;;;;;;;;;4320319;33;20863;-79
2021/10/19 22:53:20;;;;;;;4.50;2.60;;;;;;;;;;4320369;33;20561;-80
2021/10/19 22:55:46;;;;;;;3.47;2.30;;;;;;;;;;4320286;33;20489;-77
2021/10/19 22:58:12;;;;;;;2.17;1.97;;;;;;;;;;4320265;33;20816;-77
2021/10/19 23:00:38;;;;;;;2.63;2.43;;;;;;;;;;4320199;33;20518;-77
2021/10/19 23:03:05;;;;;;;2.70;2.47;;;;;;;;;;4318900;33;20983;-78
2021/10/19 23:05:31;;;;;;;3.57;2.60;;;;;;;;;;4319165;33;20433;-77
2021/10/19 23:07:57;;;;;;;4.43;2.40;;;;;;;;;;4320181;33;20598;-77
2021/10/19 23:10:23;;;;;;;2.50;2.00;;;;;;;;;;4320249;33;20470;-76
2021/10/19 23:12:49;;;;;;;4.20;2.40;;;;;;;;;;4319733;33;21038;-77
2021/10/19 23:15:15;;;;;;;4.03;3.03;;;;;;;;;;4320103;33;20498;-77
2021/10/19 23:19:47;;;;;;;3.30;2.63;;;;;;;;;;5070730;28;21062;-77
2021/10/19 23:22:13;;;;;;;2.90;2.50;;;;;;;;;;5069147;28;20431;-78
2021/10/19 23:24:39;;;;;;;5.57;2.50;;;;;;;;;;5070339;28;20399;-78
2021/10/19 23:27:05;;;;;;;3.73;2.33;;;;;;;;;;5070311;28;20395;-78
2021/10/19 23:29:34;;;;;;;2.27;2.07;;;;;;;;;;5070388;28;20892;-76
2021/10/19 23:32:01;;;;;;;2.50;2.30;;;;;;;;;;5069878;28;20424;-77
2021/10/19 23:34:27;;;;;;;3.00;2.57;;;;;;;;;;5070176;28;20381;-76
2021/10/19 23:36:53;;;;;;;5.70;2.50;;;;;;;;;;5070099;28;20418;-77
2021/10/19 23:39:19;;;;;;;4.90;2.77;;;;;;;;;;5069981;28;21048;-76
2021/10/19 23:41:45;;;;;;;6.00;2.53;;;;;;;;;;5069804;28;20778;-76
2021/10/19 23:44:11;;;;;;;3.10;2.60;;;;;;;;;;5070020;28;20426;-77
2021/10/19 23:46:37;;;;;;;3.27;2.60;;;;;;;;;;5069867;28;20411;-75
2021/10/19 23:49:04;;;;;;;4.30;2.10;;;;;;;;;;5069789;28;20382;-76
2021/10/19 23:51:30;;;;;;;3.87;2.53;;;;;;;;;;5069439;28;20431;-75
2021/10/19 23:53:56;;;;;;;3.30;2.10;;;;;;;;;;5069816;28;20415;-77
2021/10/19 23:56:22;;;;;;;2.80;2.00;;;;;;;;;;5069762;28;20394;-79
2021/10/19 23:58:48;;;;;;;3.60;2.20;;;;;;;;;;5068259;28;20471;-79
